createdAt,value
2023-02-05T00:00:56.378Z,26.5
2023-02-05T00:06:19.168Z,26.5
2023-02-05T00:11:57.652Z,26.5
2023-02-05T00:17:20.210Z,26.5
2023-02-05T00:22:57.910Z,26.4
2023-02-05T00:28:36.941Z,26.4
2023-02-05T00:34:15.279Z,26.4
2023-02-05T00:39:53.661Z,26.4
2023-02-05T00:45:31.577Z,26.4
2023-02-05T00:51:09.746Z,26.4
2023-02-05T00:56:49.243Z,26.4
2023-02-05T01:02:27.609Z,26.3
2023-02-05T01:08:04.711Z,26.3
2023-02-05T01:13:42.933Z,26.3
2023-02-05T01:19:21.008Z,26.3
2023-02-05T01:24:59.295Z,26.3
2023-02-05T01:30:37.796Z,26.3
2023-02-05T01:36:16.368Z,26.3
2023-02-05T01:47:17.117Z,26.3
2023-02-05T01:53:09.398Z,26.2
2023-02-05T01:58:46.434Z,26.2
2023-02-05T02:04:23.713Z,26.2
2023-02-05T02:10:02.331Z,26.4
2023-02-05T02:15:40.150Z,26.8
2023-02-05T02:21:17.654Z,27.3
2023-02-05T02:32:19.562Z,28.4
2023-02-05T02:37:57.530Z,29
2023-02-05T02:43:19.995Z,29.7
2023-02-05T02:48:58.472Z,30.3
2023-02-05T02:54:05.336Z,31
2023-02-05T02:59:28.072Z,31.6
2023-02-05T03:04:55.552Z,32.3
2023-02-05T03:10:18.464Z,33
2023-02-05T03:15:10.441Z,33.7
2023-02-05T03:26:10.846Z,34.9
2023-02-05T03:37:11.914Z,36.1
2023-02-05T03:42:50.161Z,36.3
2023-02-05T03:48:28.292Z,36.4
2023-02-05T03:53:56.122Z,36.4
2023-02-05T03:59:33.521Z,36.5
2023-02-05T04:10:18.769Z,36.5
2023-02-05T04:15:42.605Z,36.4
2023-02-05T04:21:05.500Z,36.4
2023-02-05T04:26:43.293Z,36.4
2023-02-05T04:32:22.070Z,36.4
2023-02-05T04:38:00.684Z,36.4
2023-02-05T04:43:38.180Z,36.4
2023-02-05T04:49:00.563Z,36.4
2023-02-05T04:54:38.034Z,36.4
2023-02-05T05:05:38.549Z,36.4
2023-02-05T05:11:15.897Z,36.3
2023-02-05T05:16:39.273Z,36.3
2023-02-05T05:22:17.388Z,36.3
2023-02-05T05:27:55.324Z,36.3
2023-02-05T05:33:33.333Z,36.3
2023-02-05T05:39:11.268Z,36.2
2023-02-05T05:44:49.357Z,36.2
2023-02-05T05:50:26.664Z,36.2
2023-02-05T05:56:04.940Z,36.2
2023-02-05T06:01:43.376Z,36.1
2023-02-05T06:07:20.710Z,36.1
2023-02-05T06:13:01.219Z,36.1
2023-02-05T06:18:24.154Z,36
2023-02-05T06:24:02.130Z,36
2023-02-05T06:29:40.332Z,36
2023-02-05T06:35:18.733Z,35.9
2023-02-05T06:41:10.953Z,35.9
2023-02-05T06:46:49.624Z,35.9
2023-02-05T06:52:28.184Z,35.9
2023-02-05T06:57:50.360Z,35.8
2023-02-05T07:03:28.718Z,35.8
2023-02-05T07:09:07.072Z,35.8
2023-02-05T07:14:30.117Z,35.7
2023-02-05T07:20:08.175Z,35.6
2023-02-05T07:25:30.667Z,35.6
2023-02-05T07:31:08.948Z,35.6
2023-02-05T07:36:47.178Z,35.6
2023-02-05T07:42:10.022Z,35.6
2023-02-05T07:47:33.354Z,35.6
2023-02-05T07:53:12.040Z,35.5
2023-02-05T07:59:04.448Z,35.4
2023-02-05T08:04:42.071Z,35.4
2023-02-05T08:10:20.874Z,35.4
2023-02-05T08:16:06.255Z,35.4
2023-02-05T08:21:44.217Z,35.4
2023-02-05T08:27:22.559Z,35.3
2023-02-05T08:33:00.620Z,35.3
2023-02-05T08:38:07.686Z,35.3
2023-02-05T08:43:45.626Z,35.3
2023-02-05T08:49:37.453Z,35.2
2023-02-05T08:55:15.079Z,35.2
2023-02-05T09:00:54.230Z,35.1
2023-02-05T09:25:04.166Z,35
2023-02-05T09:30:42.878Z,35
2023-02-05T09:36:20.880Z,34.9
2023-02-05T09:43:03.997Z,34.9
2023-02-05T09:48:43.038Z,34.9
2023-02-05T09:54:22.074Z,34.9
2023-02-05T10:00:08.161Z,34.8
2023-02-05T10:05:46.482Z,34.8
2023-02-05T10:11:07.928Z,34.8
2023-02-05T10:16:46.552Z,34.7
2023-02-05T10:22:24.570Z,34.7
2023-02-05T10:28:02.820Z,34.7
2023-02-05T10:33:42.118Z,34.6
2023-02-05T10:44:41.988Z,34.6
2023-02-05T10:50:24.085Z,34.5
2023-02-05T10:56:01.986Z,34.5
2023-02-05T11:01:39.898Z,34.5
2023-02-05T11:07:18.348Z,34.4
2023-02-05T11:12:42.402Z,34.4
2023-02-05T11:18:20.700Z,34.4
2023-02-05T11:23:59.042Z,34.3
2023-02-05T11:29:37.546Z,34.3
2023-02-05T11:35:40.322Z,34.3
2023-02-05T11:41:03.612Z,34.3
2023-02-05T11:46:42.654Z,34.3
2023-02-05T11:52:04.823Z,34.2
2023-02-05T11:57:45.801Z,34.1
2023-02-05T12:03:33.242Z,34.1
2023-02-05T12:09:09.927Z,34.1
2023-02-05T12:14:51.533Z,34.1
2023-02-05T12:20:29.820Z,34
2023-02-05T12:26:07.038Z,34
2023-02-05T12:31:29.925Z,33.9
2023-02-05T12:37:08.786Z,33.9
2023-02-05T12:42:44.917Z,33.8
2023-02-05T12:48:23.592Z,33.7
2023-02-05T12:54:01.295Z,33.6
2023-02-05T12:59:38.945Z,33.6
2023-02-05T13:05:17.736Z,33.6
2023-02-05T13:10:56.030Z,33.6
2023-02-05T13:16:34.768Z,33.5
2023-02-05T13:22:13.246Z,33.4
2023-02-05T13:27:58.383Z,33.4
2023-02-05T13:33:40.897Z,33.4
2023-02-05T13:39:22.619Z,33.3
2023-02-05T13:45:01.243Z,33.3
2023-02-05T13:50:40.622Z,33.3
2023-02-05T13:56:19.162Z,33.2
2023-02-05T14:01:42.615Z,33.1
2023-02-05T14:07:20.406Z,33.1
2023-02-05T14:13:10.379Z,33
2023-02-05T14:18:49.022Z,32.9
2023-02-05T14:24:11.498Z,32.9
2023-02-05T14:29:52.796Z,32.8
2023-02-05T14:35:28.485Z,32.8
2023-02-05T14:46:35.173Z,32.7
2023-02-05T14:52:13.622Z,32.6
2023-02-05T14:57:35.826Z,32.6
2023-02-05T15:08:24.149Z,32.5
2023-02-05T15:14:02.441Z,32.5
2023-02-05T15:19:40.622Z,32.4
2023-02-05T15:25:09.650Z,32.3
2023-02-05T15:36:11.108Z,32.3
2023-02-05T15:41:49.254Z,32.2
2023-02-05T15:47:27.072Z,32.1
2023-02-05T15:53:04.747Z,32.1
2023-02-05T15:58:27.326Z,31.9
2023-02-05T16:04:05.970Z,31.9
2023-02-05T16:09:28.622Z,31.9
2023-02-05T16:15:07.432Z,31.9
2023-02-05T16:20:30.130Z,31.8
2023-02-05T16:31:44.459Z,31.5
2023-02-05T16:37:22.185Z,31.4
2023-02-05T16:42:45.701Z,31.2
2023-02-05T16:48:23.770Z,31.1
2023-02-05T16:54:02.113Z,31
2023-02-05T16:59:24.845Z,30.9
2023-02-05T17:15:50.251Z,30.3
2023-02-05T17:21:28.656Z,30.2
2023-02-05T17:26:50.903Z,30.1
2023-02-05T17:32:29.839Z,29.9
2023-02-05T17:38:11.057Z,29.9
2023-02-05T17:43:51.762Z,29.9
2023-02-05T17:49:30.340Z,29.9
2023-02-05T17:59:59.893Z,29.8
2023-02-05T18:05:39.004Z,29.8
2023-02-05T18:11:02.110Z,29.8
2023-02-05T18:16:24.652Z,29.7
2023-02-05T18:21:47.679Z,29.6
2023-02-05T18:32:52.857Z,29.5
2023-02-05T18:38:32.662Z,29.5
2023-02-05T18:43:55.504Z,29.4
2023-02-05T18:49:33.408Z,29.4
2023-02-05T18:54:58.801Z,29.3
2023-02-05T19:06:00.144Z,29.3
2023-02-05T19:11:38.149Z,29.4
2023-02-05T19:17:18.209Z,29.4
2023-02-05T19:22:57.717Z,29.4
2023-02-05T19:28:35.564Z,29.4
2023-02-05T19:34:15.106Z,29.4
2023-02-05T19:39:52.858Z,29.4
2023-02-05T19:45:30.890Z,29.4
2023-02-05T19:50:54.295Z,29.3
2023-02-05T20:01:41.586Z,29.3
2023-02-05T20:07:21.568Z,29.1
2023-02-05T20:13:00.965Z,28.9
2023-02-05T20:18:38.305Z,28.9
2023-02-05T20:24:31.253Z,28.9
2023-02-05T20:30:09.533Z,28.9
2023-02-05T20:35:48.324Z,28.8
2023-02-05T20:41:27.061Z,28.8
2023-02-05T20:52:42.160Z,28
2023-02-05T20:58:20.661Z,27.5
2023-02-05T21:03:58.935Z,27.3
2023-02-05T21:09:38.401Z,27.6
2023-02-05T21:15:16.476Z,28.1
2023-02-05T21:20:23.924Z,28.5
2023-02-05T21:26:02.212Z,28.6
2023-02-05T21:31:26.943Z,28.8
2023-02-05T21:37:04.299Z,28.9
2023-02-05T21:42:38.767Z,28.9
2023-02-05T21:48:17.440Z,28.9
2023-02-05T21:53:39.727Z,28.9
2023-02-05T21:59:17.732Z,28.9
2023-02-05T22:04:40.940Z,28.9
2023-02-05T22:09:35.018Z,28.9
2023-02-05T22:15:12.900Z,28.9
2023-02-05T22:20:51.563Z,28.9
2023-02-05T22:26:29.814Z,28.9
2023-02-05T22:32:08.734Z,28.9
2023-02-05T22:37:32.328Z,28.9
2023-02-05T22:43:10.342Z,28.9
2023-02-05T22:48:48.597Z,28.9
2023-02-05T22:54:10.870Z,28.9
2023-02-05T22:59:52.417Z,28.8
2023-02-05T23:05:14.823Z,28.8
2023-02-05T23:10:40.564Z,28.8
2023-02-05T23:16:18.029Z,28.8
2023-02-05T23:21:55.583Z,28.8
2023-02-05T23:27:34.139Z,28.8
2023-02-05T23:32:57.429Z,28.8
2023-02-05T23:38:35.626Z,28.7
2023-02-05T23:44:13.753Z,28.7
2023-02-05T23:49:51.346Z,28.7
2023-02-05T23:55:29.026Z,28.6
